createdAt,value
2023-02-14T00:01:19.411Z,12.42
2023-02-14T00:03:47.728Z,12.38
2023-02-14T00:06:16.180Z,12.10
2023-02-14T00:08:44.836Z,12.00
2023-02-14T00:11:13.713Z,12.32
2023-02-14T00:14:00.888Z,12.25
2023-02-14T00:16:29.463Z,12.17
2023-02-14T00:19:06.517Z,11.86
2023-02-14T00:21:35.971Z,11.99
2023-02-14T00:24:03.614Z,12.13
2023-02-14T00:26:30.541Z,11.29
2023-02-14T00:28:58.502Z,11.83
2023-02-14T00:31:25.891Z,12.12
2023-02-14T00:33:54.675Z,12.32
2023-02-14T00:36:22.533Z,11.96
2023-02-14T00:38:49.289Z,12.09
2023-02-14T00:41:19.695Z,12.28
2023-02-14T00:43:52.298Z,12.15
2023-02-14T00:46:20.361Z,11.21
2023-02-14T00:48:49.568Z,11.79
2023-02-14T00:51:18.788Z,11.98
2023-02-14T00:53:49.733Z,11.71
2023-02-14T00:56:16.745Z,12.07
2023-02-14T00:58:44.849Z,11.81
2023-02-14T01:01:14.525Z,12.06
2023-02-14T01:03:41.500Z,11.34
2023-02-14T01:06:09.657Z,10.82
2023-02-14T01:08:38.258Z,11.07
2023-02-14T01:11:12.821Z,11.17
2023-02-14T01:13:39.881Z,11.28
2023-02-14T01:16:13.301Z,11.51
2023-02-14T01:18:40.257Z,11.87
2023-02-14T01:21:15.790Z,12.14
2023-02-14T01:23:44.556Z,11.74
2023-02-14T01:26:12.017Z,10.85
2023-02-14T01:28:38.673Z,11.29
2023-02-14T01:31:13.001Z,11.76
2023-02-14T01:33:42.173Z,11.96
2023-02-14T01:36:17.965Z,12.07
2023-02-14T01:38:45.211Z,12.22
2023-02-14T01:41:12.298Z,12.23
2023-02-14T01:44:02.489Z,11.66
2023-02-14T01:46:33.636Z,12.13
2023-02-14T01:49:04.463Z,12.13
2023-02-14T01:51:34.891Z,12.29
2023-02-14T01:54:03.698Z,12.30
2023-02-14T01:56:43.536Z,12.15
2023-02-14T01:59:12.512Z,12.12
2023-02-14T02:01:40.726Z,11.88
2023-02-14T02:04:10.466Z,11.81
2023-02-14T02:06:44.405Z,11.77
2023-02-14T02:09:14.648Z,11.90
2023-02-14T02:11:42.081Z,11.79
2023-02-14T02:14:14.985Z,11.95
2023-02-14T02:17:08.278Z,11.78
2023-02-14T02:19:54.261Z,11.82
2023-02-14T02:22:41.671Z,11.99
2023-02-14T02:25:28.321Z,11.68
2023-02-14T02:27:55.053Z,11.87
2023-02-14T02:30:44.537Z,11.82
2023-02-14T02:33:30.184Z,11.54
2023-02-14T02:35:57.709Z,12.00
2023-02-14T02:38:54.564Z,12.17
2023-02-14T02:42:00.758Z,11.90
2023-02-14T02:44:40.534Z,11.77
2023-02-14T02:47:19.637Z,12.08
2023-02-14T02:50:08.270Z,11.90
2023-02-14T02:53:05.536Z,12.11
2023-02-14T02:55:57.702Z,11.80
2023-02-14T02:58:26.218Z,11.73
2023-02-14T03:00:55.344Z,12.11
2023-02-14T03:03:44.481Z,12.12
2023-02-14T03:06:11.229Z,12.00
2023-02-14T03:08:38.138Z,11.15
2023-02-14T03:11:05.976Z,10.73
2023-02-14T03:13:36.558Z,10.28
2023-02-14T03:16:06.285Z,11.12
2023-02-14T03:18:42.551Z,11.51
2023-02-14T03:21:25.302Z,11.61
2023-02-14T03:24:01.601Z,11.24
2023-02-14T03:26:39.502Z,10.91
2023-02-14T03:29:10.095Z,11.17
2023-02-14T03:31:47.619Z,11.22
2023-02-14T03:34:21.888Z,11.52
2023-02-14T03:36:59.236Z,11.61
2023-02-14T03:39:38.669Z,11.22
2023-02-14T03:42:09.383Z,11.44
2023-02-14T03:44:38.240Z,11.59
2023-02-14T03:47:09.263Z,11.53
2023-02-14T03:49:38.655Z,11.63
2023-02-14T03:52:09.909Z,11.54
2023-02-14T03:54:37.916Z,11.66
2023-02-14T03:57:12.679Z,11.79
2023-02-14T03:59:40.666Z,11.81
2023-02-14T04:02:10.372Z,11.48
2023-02-14T04:04:43.553Z,11.62
2023-02-14T04:07:12.219Z,11.77
2023-02-14T04:09:38.831Z,11.53
2023-02-14T04:12:06.289Z,11.47
2023-02-14T04:14:34.040Z,11.42
2023-02-14T04:17:19.476Z,11.23
2023-02-14T04:19:48.489Z,11.31
2023-02-14T04:22:15.801Z,11.26
2023-02-14T04:24:43.984Z,11.01
2023-02-14T04:27:11.427Z,11.36
2023-02-14T04:29:41.187Z,11.12
2023-02-14T04:32:15.660Z,11.17
2023-02-14T04:34:42.476Z,11.23
2023-02-14T04:37:11.074Z,11.34
2023-02-14T04:39:38.261Z,11.62
2023-02-14T04:42:05.761Z,11.22
2023-02-14T04:44:34.037Z,10.99
2023-02-14T04:47:01.227Z,11.11
2023-02-14T04:49:29.703Z,10.93
2023-02-14T04:51:57.016Z,11.26
2023-02-14T04:54:25.586Z,11.14
2023-02-14T04:56:53.033Z,11.18
2023-02-14T04:59:22.002Z,11.39
2023-02-14T05:01:51.518Z,11.56
2023-02-14T05:04:18.354Z,11.43
2023-02-14T05:06:51.363Z,11.50
2023-02-14T05:09:21.200Z,11.45
2023-02-14T05:11:49.225Z,11.34
2023-02-14T05:14:17.636Z,11.42
2023-02-14T05:16:45.407Z,11.48
2023-02-14T05:19:13.340Z,11.38
2023-02-14T05:21:41.296Z,11.36
2023-02-14T05:24:08.631Z,11.21
2023-02-14T05:26:35.945Z,11.31
2023-02-14T05:29:03.690Z,11.50
2023-02-14T05:31:30.766Z,11.44
2023-02-14T05:33:57.720Z,11.43
2023-02-14T05:36:24.919Z,11.12
2023-02-14T05:38:52.719Z,11.16
2023-02-14T05:41:19.711Z,11.52
2023-02-14T05:43:46.290Z,10.93
2023-02-14T05:46:13.170Z,11.25
2023-02-14T05:48:41.121Z,11.43
2023-02-14T05:51:08.805Z,11.59
2023-02-14T05:53:36.077Z,11.35
2023-02-14T05:56:06.472Z,11.04
2023-02-14T05:58:35.245Z,11.16
2023-02-14T06:01:02.388Z,11.50
2023-02-14T06:03:30.010Z,11.74
2023-02-14T06:05:57.074Z,11.54
2023-02-14T06:08:24.273Z,11.18
2023-02-14T06:10:51.107Z,11.55
2023-02-14T06:13:17.978Z,11.59
2023-02-14T06:15:45.949Z,11.04
2023-02-14T06:18:12.813Z,11.30
2023-02-14T06:20:40.420Z,11.08
2023-02-14T06:23:07.380Z,11.20
2023-02-14T06:25:34.124Z,11.34
2023-02-14T06:28:02.589Z,11.07
2023-02-14T06:30:29.768Z,10.99
2023-02-14T06:32:58.380Z,11.01
2023-02-14T06:35:25.360Z,11.40
2023-02-14T06:37:52.887Z,11.22
2023-02-14T06:40:21.665Z,11.52
2023-02-14T06:42:48.305Z,11.51
2023-02-14T06:45:15.299Z,11.32
2023-02-14T06:47:42.619Z,11.47
2023-02-14T06:50:11.852Z,11.42
2023-02-14T06:52:38.995Z,11.21
2023-02-14T06:55:06.557Z,11.46
2023-02-14T06:57:34.529Z,11.60
2023-02-14T07:00:01.969Z,10.78
2023-02-14T07:02:33.406Z,11.17
2023-02-14T07:05:02.360Z,11.50
2023-02-14T07:07:31.904Z,10.77
2023-02-14T07:09:59.827Z,11.32
2023-02-14T07:12:26.438Z,11.65
2023-02-14T07:14:53.781Z,11.14
2023-02-14T07:17:20.670Z,11.49
2023-02-14T07:19:48.928Z,11.56
2023-02-14T07:22:15.780Z,11.55
2023-02-14T07:24:44.340Z,11.70
2023-02-14T07:27:11.416Z,11.55
2023-02-14T07:29:38.101Z,11.44
2023-02-14T07:32:05.179Z,11.22
2023-02-14T07:34:35.837Z,11.39
2023-02-14T07:37:03.725Z,11.34
2023-02-14T07:39:30.565Z,11.28
2023-02-14T07:41:57.336Z,11.65
2023-02-14T07:44:24.325Z,11.61
2023-02-14T07:46:51.304Z,10.52
2023-02-14T07:49:18.152Z,10.82
2023-02-14T07:51:45.328Z,11.86
2023-02-14T07:54:11.961Z,11.86
2023-02-14T07:56:38.610Z,10.85
2023-02-14T07:59:05.444Z,11.58
2023-02-14T08:01:32.393Z,11.93
2023-02-14T08:03:59.933Z,11.95
2023-02-14T08:06:27.871Z,11.85
2023-02-14T08:08:56.484Z,12.06
2023-02-14T08:11:42.025Z,12.16
2023-02-14T08:14:08.902Z,12.32
2023-02-14T08:16:35.812Z,12.74
2023-02-14T08:19:03.018Z,12.28
2023-02-14T08:21:31.290Z,12.55
2023-02-14T08:23:59.161Z,12.64
2023-02-14T08:26:27.151Z,12.85
2023-02-14T08:28:54.633Z,13.09
2023-02-14T08:31:34.394Z,12.95
2023-02-14T08:34:02.493Z,12.68
2023-02-14T08:36:29.387Z,12.65
2023-02-14T08:38:57.547Z,12.86
2023-02-14T08:41:24.542Z,13.21
2023-02-14T08:43:52.773Z,13.01
2023-02-14T08:46:19.851Z,12.85
2023-02-14T08:48:47.348Z,13.01
2023-02-14T08:51:16.560Z,12.54
2023-02-14T08:53:43.953Z,12.54
2023-02-14T08:56:11.859Z,12.64
2023-02-14T08:58:38.947Z,12.95
2023-02-14T09:01:16.813Z,12.98
2023-02-14T09:03:44.389Z,12.41
2023-02-14T09:06:12.252Z,13.11
2023-02-14T09:08:40.006Z,13.06
2023-02-14T09:11:10.898Z,12.55
2023-02-14T09:13:37.831Z,12.91
2023-02-14T09:16:07.230Z,13.25
2023-02-14T09:18:34.401Z,13.36
2023-02-14T09:21:01.817Z,13.59
2023-02-14T09:23:28.581Z,13.07
2023-02-14T09:26:02.470Z,13.21
2023-02-14T09:28:29.749Z,13.47
2023-02-14T09:30:57.037Z,13.98
2023-02-14T09:33:24.497Z,14.01
2023-02-14T09:35:52.481Z,14.14
2023-02-14T09:38:19.661Z,14.33
2023-02-14T09:40:47.330Z,14.14
2023-02-14T09:43:21.439Z,14.55
2023-02-14T09:45:51.506Z,14.25
2023-02-14T09:48:27.197Z,14.21
2023-02-14T09:51:05.947Z,14.48
2023-02-14T09:53:34.799Z,14.23
2023-02-14T09:56:10.276Z,13.85
2023-02-14T09:58:50.029Z,14.50
2023-02-14T10:01:20.637Z,14.05
2023-02-14T10:04:00.052Z,13.66
2023-02-14T10:06:45.218Z,13.90
2023-02-14T10:09:14.976Z,14.57
2023-02-14T10:11:45.099Z,15.03
2023-02-14T10:14:14.483Z,15.20
2023-02-14T10:16:49.221Z,14.54
2023-02-14T10:19:19.471Z,14.42
2023-02-14T10:21:52.320Z,15.27
2023-02-14T10:24:48.339Z,15.26
2023-02-14T10:27:18.258Z,14.78
2023-02-14T10:29:45.654Z,15.11
2023-02-14T10:32:19.006Z,14.98
2023-02-14T10:34:49.910Z,15.16
2023-02-14T10:37:22.680Z,14.53
2023-02-14T10:39:52.400Z,15.27
2023-02-14T10:42:18.986Z,15.88
2023-02-14T10:44:49.522Z,15.20
2023-02-14T10:47:19.369Z,15.54
2023-02-14T10:49:49.847Z,14.62
2023-02-14T10:52:20.761Z,15.51
2023-02-14T10:54:52.948Z,14.49
2023-02-14T10:57:25.052Z,15.36
2023-02-14T10:59:58.583Z,14.93
2023-02-14T11:02:31.943Z,15.31
2023-02-14T11:04:59.165Z,15.13
2023-02-14T11:07:25.903Z,14.81
2023-02-14T11:09:52.561Z,15.23
2023-02-14T11:12:33.298Z,15.13
2023-02-14T11:15:10.145Z,15.40
2023-02-14T11:17:37.756Z,15.48
2023-02-14T11:20:22.692Z,15.70
2023-02-14T11:22:50.019Z,15.41
2023-02-14T11:25:24.831Z,15.27
2023-02-14T11:27:54.428Z,16.17
2023-02-14T11:30:26.584Z,16.02
2023-02-14T11:33:01.895Z,15.36
2023-02-14T11:35:34.663Z,15.32
2023-02-14T11:38:05.093Z,15.55
2023-02-14T11:40:31.698Z,15.60
2023-02-14T11:43:13.444Z,16.00
2023-02-14T11:45:42.705Z,15.81
2023-02-14T11:48:10.636Z,15.97
2023-02-14T11:50:39.100Z,16.32
2023-02-14T11:53:11.265Z,16.48
2023-02-14T11:55:38.348Z,16.39
2023-02-14T11:58:06.858Z,16.00
2023-02-14T12:00:33.925Z,16.22
2023-02-14T12:03:03.164Z,16.34
2023-02-14T12:05:45.432Z,15.86
2023-02-14T12:08:13.429Z,16.45
2023-02-14T12:10:42.422Z,16.34
2023-02-14T12:13:09.410Z,16.87
2023-02-14T12:15:39.723Z,15.80
2023-02-14T12:18:09.589Z,16.38
2023-02-14T12:20:36.448Z,16.01
2023-02-14T12:23:10.510Z,16.32
2023-02-14T12:25:43.386Z,16.31
2023-02-14T12:28:16.417Z,16.80
2023-02-14T12:30:43.486Z,17.11
2023-02-14T12:33:18.874Z,17.26
2023-02-14T12:35:45.684Z,16.16
2023-02-14T12:38:27.659Z,16.24
2023-02-14T12:41:02.376Z,16.83
2023-02-14T12:43:32.405Z,16.55
2023-02-14T12:46:12.982Z,15.44
2023-02-14T12:48:50.728Z,15.59
2023-02-14T12:51:29.620Z,16.29
2023-02-14T12:53:56.087Z,16.29
2023-02-14T12:56:26.267Z,15.81
2023-02-14T12:58:56.400Z,16.70
2023-02-14T13:01:38.367Z,16.93
2023-02-14T13:04:15.042Z,16.55
2023-02-14T13:06:45.931Z,16.93
2023-02-14T13:09:15.648Z,16.69
2023-02-14T13:11:42.435Z,16.42
2023-02-14T13:14:32.617Z,16.19
2023-02-14T13:17:18.157Z,16.34
2023-02-14T13:19:48.443Z,15.78
2023-02-14T13:22:19.070Z,16.02
2023-02-14T13:24:47.437Z,16.17
2023-02-14T13:27:18.289Z,16.07
2023-02-14T13:29:50.885Z,16.39
2023-02-14T13:32:21.534Z,16.70
2023-02-14T13:34:49.016Z,16.97
2023-02-14T13:37:18.005Z,16.97
2023-02-14T13:39:48.067Z,16.51
2023-02-14T13:42:34.572Z,16.60
2023-02-14T13:45:02.576Z,16.66
2023-02-14T13:47:29.273Z,17.02
2023-02-14T13:49:59.351Z,17.15
2023-02-14T13:52:41.985Z,16.66
2023-02-14T13:55:10.213Z,16.85
2023-02-14T13:57:41.243Z,16.83
2023-02-14T14:00:20.513Z,16.64
2023-02-14T14:02:46.929Z,16.87
2023-02-14T14:05:43.883Z,17.09
2023-02-14T14:08:22.710Z,16.71
2023-02-14T14:10:53.711Z,16.67
2023-02-14T14:13:39.487Z,16.42
2023-02-14T14:16:24.698Z,15.81
2023-02-14T14:18:52.583Z,16.10
2023-02-14T14:21:28.669Z,16.77
2023-02-14T14:24:22.242Z,16.08
2023-02-14T14:26:58.044Z,15.71
2023-02-14T14:29:27.853Z,15.13
2023-02-14T14:31:56.520Z,16.25
2023-02-14T14:34:27.770Z,16.17
2023-02-14T14:37:04.386Z,16.22
2023-02-14T14:39:32.479Z,15.90
2023-02-14T14:42:06.982Z,15.76
2023-02-14T14:44:37.465Z,16.41
2023-02-14T14:47:04.197Z,16.00
2023-02-14T14:49:32.274Z,15.41
2023-02-14T14:51:58.978Z,15.59
2023-02-14T14:54:27.496Z,15.86
2023-02-14T14:57:01.548Z,15.69
2023-02-14T14:59:35.399Z,15.90
2023-02-14T15:02:02.423Z,16.27
2023-02-14T15:04:33.676Z,16.11
2023-02-14T15:07:19.324Z,16.11
2023-02-14T15:09:46.188Z,15.91
2023-02-14T15:12:34.037Z,15.87
2023-02-14T15:15:00.641Z,16.05
2023-02-14T15:17:29.490Z,16.17
2023-02-14T15:20:02.579Z,16.01
2023-02-14T15:22:34.042Z,16.12
2023-02-14T15:25:00.602Z,15.53
2023-02-14T15:27:29.102Z,15.79
2023-02-14T15:30:00.464Z,15.71
2023-02-14T15:32:30.155Z,15.16
2023-02-14T15:34:57.037Z,15.48
2023-02-14T15:37:24.537Z,15.62
2023-02-14T15:39:58.198Z,15.33
2023-02-14T15:42:29.652Z,15.60
2023-02-14T15:45:15.191Z,15.48
2023-02-14T15:47:43.971Z,15.41
2023-02-14T15:50:17.615Z,15.40
2023-02-14T15:52:45.929Z,15.38
2023-02-14T15:55:19.149Z,15.27
2023-02-14T15:57:48.726Z,15.36
2023-02-14T16:00:17.747Z,15.36
2023-02-14T16:02:57.083Z,15.47
2023-02-14T16:05:25.140Z,15.34
2023-02-14T16:08:05.586Z,14.80
2023-02-14T16:10:38.232Z,14.90
2023-02-14T16:13:06.762Z,15.03
2023-02-14T16:15:35.789Z,15.16
2023-02-14T16:18:08.172Z,14.82
2023-02-14T16:20:38.689Z,14.77
2023-02-14T16:23:22.561Z,14.80
2023-02-14T16:25:49.748Z,14.75
2023-02-14T16:28:17.720Z,14.60
2023-02-14T16:31:00.022Z,14.41
2023-02-14T16:33:28.180Z,14.11
2023-02-14T16:36:01.176Z,14.05
2023-02-14T16:38:27.754Z,14.22
2023-02-14T16:40:54.719Z,14.21
2023-02-14T16:43:22.815Z,14.08
2023-02-14T16:45:50.194Z,13.88
2023-02-14T16:48:19.785Z,13.78
2023-02-14T16:50:46.793Z,13.51
2023-02-14T16:53:31.877Z,13.48
2023-02-14T16:55:59.060Z,13.48
2023-02-14T16:58:29.253Z,13.46
2023-02-14T17:00:58.583Z,13.22
2023-02-14T17:03:25.694Z,13.11
2023-02-14T17:05:54.792Z,12.96
2023-02-14T17:08:21.908Z,12.88
2023-02-14T17:10:49.549Z,12.74
2023-02-14T17:13:19.859Z,12.75
2023-02-14T17:15:46.495Z,12.66
2023-02-14T17:18:15.892Z,12.28
2023-02-14T17:20:42.873Z,11.95
2023-02-14T17:23:12.540Z,11.85
2023-02-14T17:25:39.854Z,11.80
2023-02-14T17:28:07.589Z,11.72
2023-02-14T17:30:34.389Z,11.59
2023-02-14T17:33:02.193Z,11.37
2023-02-14T17:35:30.749Z,11.66
2023-02-14T17:37:58.772Z,11.76
2023-02-14T17:40:25.820Z,11.49
2023-02-14T17:42:53.465Z,11.35
2023-02-14T17:45:20.652Z,11.38
2023-02-14T17:47:47.843Z,11.39
2023-02-14T17:50:16.021Z,11.20
2023-02-14T17:52:43.150Z,11.17
2023-02-14T17:55:10.383Z,11.19
2023-02-14T17:57:41.227Z,10.99
2023-02-14T18:00:11.380Z,10.70
2023-02-14T18:02:39.101Z,10.61
2023-02-14T18:05:07.709Z,10.30
2023-02-14T18:07:35.927Z,10.41
2023-02-14T18:10:04.529Z,10.52
2023-02-14T18:12:31.474Z,10.49
2023-02-14T18:15:00.896Z,10.52
2023-02-14T18:17:28.387Z,10.40
2023-02-14T18:19:56.788Z,10.57
2023-02-14T18:22:23.482Z,10.19
2023-02-14T18:24:50.083Z,10.24
2023-02-14T18:27:16.603Z,10.40
2023-02-14T18:29:43.217Z,10.35
2023-02-14T18:32:10.329Z,10.43
2023-02-14T18:34:37.720Z,10.45
2023-02-14T18:37:05.704Z,10.36
2023-02-14T18:39:32.880Z,10.42
2023-02-14T18:42:01.066Z,10.28
2023-02-14T18:44:28.657Z,10.46
2023-02-14T18:46:55.486Z,10.42
2023-02-14T18:49:22.112Z,10.35
2023-02-14T18:51:49.753Z,10.34
2023-02-14T18:54:17.760Z,10.36
2023-02-14T18:56:44.679Z,10.29
2023-02-14T18:59:13.327Z,10.49
2023-02-14T19:01:42.002Z,10.46
2023-02-14T19:04:09.195Z,10.57
2023-02-14T19:06:36.213Z,10.53
2023-02-14T19:09:04.052Z,10.54
2023-02-14T19:11:31.649Z,10.51
2023-02-14T19:14:00.753Z,10.28
2023-02-14T19:16:28.611Z,10.40
2023-02-14T19:18:55.486Z,10.48
2023-02-14T19:21:24.685Z,10.50
2023-02-14T19:23:53.029Z,10.59
2023-02-14T19:26:21.015Z,10.63
2023-02-14T19:28:48.591Z,10.57
2023-02-14T19:31:17.084Z,10.68
2023-02-14T19:33:44.486Z,10.67
2023-02-14T19:36:13.106Z,10.62
2023-02-14T19:38:40.788Z,10.60
2023-02-14T19:41:14.388Z,10.62
2023-02-14T19:43:41.702Z,10.50
2023-02-14T19:46:08.719Z,10.41
2023-02-14T19:48:35.263Z,10.15
2023-02-14T19:51:02.002Z,10.12
2023-02-14T19:53:28.751Z,10.22
2023-02-14T19:55:55.525Z,10.26
2023-02-14T19:58:22.464Z,10.23
2023-02-14T20:01:00.066Z,10.04
2023-02-14T20:03:26.981Z,10.00
2023-02-14T20:05:55.521Z,10.01
2023-02-14T20:08:22.491Z,9.96
2023-02-14T20:10:49.112Z,9.97
2023-02-14T20:13:16.153Z,9.79
2023-02-14T20:15:45.263Z,9.82
2023-02-14T20:18:12.264Z,9.84
2023-02-14T20:20:59.430Z,9.92
2023-02-14T20:23:26.514Z,9.93
2023-02-14T20:25:53.712Z,9.76
2023-02-14T20:28:25.586Z,9.72
2023-02-14T20:30:52.431Z,9.74
2023-02-14T20:33:20.869Z,9.82
2023-02-14T20:36:12.578Z,9.73
2023-02-14T20:38:40.495Z,9.69
2023-02-14T20:41:10.849Z,9.67
2023-02-14T20:43:38.757Z,9.65
2023-02-14T20:46:08.144Z,9.58
2023-02-14T20:48:35.492Z,9.62
2023-02-14T20:51:23.643Z,9.56
2023-02-14T20:53:50.625Z,9.47
2023-02-14T20:56:20.512Z,9.45
2023-02-14T20:58:47.673Z,9.47
2023-02-14T21:01:21.300Z,9.47
2023-02-14T21:03:52.223Z,9.57
2023-02-14T21:06:20.925Z,9.42
2023-02-14T21:08:53.645Z,9.11
2023-02-14T21:11:22.451Z,9.38
2023-02-14T21:13:55.157Z,9.39
2023-02-14T21:16:22.123Z,9.41
2023-02-14T21:18:52.493Z,9.38
2023-02-14T21:21:22.728Z,9.27
2023-02-14T21:23:51.569Z,9.26
2023-02-14T21:26:20.088Z,9.30
2023-02-14T21:28:49.616Z,9.22
2023-02-14T21:31:18.345Z,9.23
2023-02-14T21:33:45.230Z,9.16
2023-02-14T21:36:13.219Z,9.15
2023-02-14T21:38:41.627Z,9.14
2023-02-14T21:41:09.759Z,9.22
2023-02-14T21:43:37.766Z,9.24
2023-02-14T21:46:08.288Z,8.97
2023-02-14T21:48:53.751Z,9.06
2023-02-14T21:51:20.340Z,9.11
2023-02-14T21:53:48.718Z,8.94
2023-02-14T21:56:20.199Z,8.87
2023-02-14T21:58:47.815Z,8.73
2023-02-14T22:01:16.014Z,8.66
2023-02-14T22:03:44.276Z,8.64
2023-02-14T22:06:11.354Z,8.76
2023-02-14T22:08:38.370Z,8.59
2023-02-14T22:11:16.683Z,8.63
2023-02-14T22:13:45.223Z,8.67
2023-02-14T22:16:13.818Z,8.61
2023-02-14T22:18:42.490Z,8.48
2023-02-14T22:21:12.475Z,8.39
2023-02-14T22:23:39.650Z,8.39
2023-02-14T22:26:14.153Z,8.15
2023-02-14T22:28:41.761Z,8.12
2023-02-14T22:31:09.716Z,8.04
2023-02-14T22:33:37.876Z,8.11
2023-02-14T22:36:06.286Z,8.13
2023-02-14T22:38:33.746Z,8.06
2023-02-14T22:41:07.858Z,8.13
2023-02-14T22:43:35.313Z,8.01
2023-02-14T22:46:04.114Z,7.96
2023-02-14T22:48:33.076Z,7.82
2023-02-14T22:51:15.730Z,7.83
2023-02-14T22:53:42.783Z,7.83
2023-02-14T22:56:11.440Z,7.74
2023-02-14T22:58:39.829Z,7.29
2023-02-14T23:01:13.389Z,7.17
2023-02-14T23:03:40.225Z,7.16
2023-02-14T23:06:07.077Z,7.12
2023-02-14T23:08:34.508Z,6.93
2023-02-14T23:11:11.359Z,7.06
2023-02-14T23:13:57.119Z,7.04
2023-02-14T23:16:42.537Z,7.08
2023-02-14T23:19:47.862Z,7.27
2023-02-14T23:22:14.441Z,7.39
2023-02-14T23:24:41.307Z,7.41
2023-02-14T23:27:10.940Z,7.44
2023-02-14T23:29:41.208Z,7.63
2023-02-14T23:32:09.358Z,7.69
2023-02-14T23:34:37.377Z,7.79
2023-02-14T23:37:04.357Z,7.81
2023-02-14T23:39:35.856Z,7.99
2023-02-14T23:42:04.743Z,8.30
2023-02-14T23:44:34.264Z,8.49
2023-02-14T23:47:03.369Z,8.67
2023-02-14T23:49:30.815Z,8.80
2023-02-14T23:51:57.810Z,8.71
2023-02-14T23:54:25.341Z,8.81
2023-02-14T23:56:55.136Z,8.97
2023-02-14T23:59:22.170Z,9.12
